Latest Coastal Weather Observations for Port Fairy

IDV60701

Issued at 1:51 pm EDT Wednesday 10 February 2016 (issued every 10 minutes, with the page automatically refreshed every 10 minutes)

About coastal observations | Map of coastal stations | Coastal observations for VIC | Marine services | Other Formats
Station Details ID: 090175 Name: PORT FAIRY AWS Lat: -38.39 Lon: 142.23 Height: 10.0 m
Data from the previous 72 hours. | See also: Recent months at Port Fairy
Date/Time
EDT
Temp

°C
Wind Pressure Rain
since 9am
mm
Weather Cloud Vis
km
Sea
Height
m
Swell
Dir
 
Speed
knots
Gust
knots
hPa Trend Height
m
Period
s
Dir
10/01:30pm 20.5 S 7 9 1016.5 - 0.0 - - - - - - -
10/01:00pm 20.4 S 6 8 1016.7 - 0.0 - - - - - - -
10/12:30pm 19.7 S 5 7 1016.9 - 0.0 - - - - - - -
10/12:00pm 20.0 S 5 6 1017.1 - 0.0 - - - - - - -
10/11:30am 19.3 S 5 8 1017.3 - 0.0 - - - - - - -
10/11:00am 19.2 S 6 8 1017.4 - 0.0 - - - - - - -
10/10:30am 19.1 S 6 8 1017.6 - 0.0 - - - - - - -
10/10:00am 18.6 SSE 7 9 1017.4 - 0.0 - - - - - - -
10/09:30am 18.6 SSE 7 9 1017.3 - 0.0 - - - - - - -
10/09:00am 18.5 SSE 6 8 1016.8 - 0.0 - - - - - - -
10/08:30am 17.9 SSE 5 7 1016.7 - 0.0 - - - - - - -
10/08:00am 16.9 SSE 4 5 1016.3 - 0.0 - - - - - - -
10/07:30am 16.5 SSE 6 8 1016.2 - 0.0 - - - - - - -
10/07:00am 15.4 SE 5 7 1015.9 - 0.0 - - - - - - -
10/06:30am 15.8 SSE 6 7 1015.8 - 0.0 - - - - - - -
10/06:00am 16.2 SSE 5 7 1015.7 - 0.0 - - - - - - -
10/05:30am 16.4 SSE 5 7 1015.7 - 0.0 - - - - - - -
10/05:00am 16.4 SSE 7 10 1015.7 - 0.0 - - - - - - -
10/04:30am 16.1 SSE 6 8 1015.7 - 0.0 - - - - - - -
10/04:00am 16.0 SSE 6 8 1015.8 - 0.0 - - - - - - -
10/03:30am 15.9 SE 6 7 1015.9 - 0.0 - - - - - - -
10/03:00am 16.3 SE 6 9 1016.2 - 0.0 - - - - - - -
10/02:30am 16.4 SE 6 9 1016.7 - 0.0 - - - - - - -
10/02:00am 16.8 SSE 7 9 1017.1 - 0.0 - - - - - - -
10/01:30am 16.7 SE 7 9 1017.2 - 0.0 - - - - - - -
10/01:00am 16.5 SE 7 9 1017.5 - 0.0 - - - - - - -
10/12:30am 16.8 SE 8 11 1017.6 - 0.0 - - - - - - -
10/12:00am 16.4 SE 8 10 1017.8 - 0.0 - - - - - - -
 
Date/Time
EDT
Temp

°C
Wind Pressure Rain
since 9am
mm
Weather Cloud Vis
km
Sea
Height
m
Swell
Dir
 
Speed
knots
Gust
knots
hPa Trend Height
m
Period
s
Dir
09/11:30pm 16.6 SSE 7 10 1018.0 - 0.0 - - - - - - -
09/11:00pm 16.8 SSE 8 10 1018.3 - 0.0 - - - - - - -
09/10:30pm 16.9 SSE 9 11 1018.3 - 0.0 - - - - - - -
09/10:00pm 16.9 SSE 8 11 1018.2 - 0.0 - - - - - - -
09/09:30pm 17.1 SSE 9 11 1018.4 - 0.0 - - - - - - -
09/09:00pm 17.2 SSE 9 11 1018.4 - 0.0 - - - - - - -
09/08:30pm 17.5 SSE 9 10 1018.5 - 0.0 - - - - - - -
09/08:00pm 18.3 SSE 7 9 1018.5 - 0.0 - - - - - - -
09/07:30pm 18.6 SSE 8 11 1018.5 - 0.0 - - - - - - -
09/07:00pm 18.7 S 10 13 1018.5 - 0.0 - - - - - - -
09/06:30pm 19.4 SSE 9 13 1018.3 - 0.0 - - - - - - -
09/06:00pm 19.9 SSE 10 13 1018.3 - 0.0 - - - - - - -
09/05:30pm 20.0 SSE 10 13 1018.7 - 0.0 - - - - - - -
09/05:00pm 20.9 SSE 8 11 1018.9 - 0.0 - - - - - - -
09/04:30pm 20.8 S 8 12 1019.2 - 0.0 - - - - - - -
09/04:00pm 20.4 SSE 8 10 1019.5 - 0.0 - - - - - - -
09/03:30pm 20.6 SSE 8 11 1019.7 - 0.0 - - - - - - -
09/03:00pm 21.3 SSE 9 11 1019.9 - 0.0 - - - - - - -
09/02:30pm 22.2 SSE 9 12 1020.2 - 0.0 - - - - - - -
09/02:00pm 21.2 SSE 9 12 1020.5 - 0.0 - - - - - - -
09/01:30pm 21.4 SSE 9 12 1020.7 - 0.0 - - - - - - -
09/01:00pm 21.1 SE 9 11 1021.0 - 0.0 - - - - - - -
09/12:30pm 20.5 SE 9 11 1021.4 - 0.0 - - - - - - -
09/12:00pm 20.3 SE 9 12 1021.7 - 0.0 - - - - - - -
09/11:30am 19.5 SE 8 11 1022.0 - 0.0 - - - - - - -
09/11:00am 19.9 SE 7 9 1022.1 - 0.0 - - - - - - -
09/10:30am 19.1 ESE 8 12 1022.2 - 0.0 - - - - - - -
09/10:00am 18.6 E 5 8 1022.3 - 0.0 - - - - - - -
09/09:30am 18.4 E 5 8 1022.6 - 0.0 - - - - - - -
09/09:00am 17.9 ESE 7 13 1022.6 - 0.0 - - - - - - -
09/08:30am 17.6 E 6 8 1022.5 - 0.0 - - - - - - -
09/08:00am 17.4 ESE 6 9 1022.4 - 0.0 - - - - - - -
09/07:30am 17.3 SE 5 8 1022.3 - 0.0 - - - - - - -
09/07:00am 17.1 ESE 5 7 1022.2 - 0.0 - - - - - - -
09/06:30am 16.9 SE 6 9 1022.0 - 0.0 - - - - - - -
09/06:00am 16.9 SE 7 11 1021.8 - 0.0 - - - - - - -
09/05:30am 16.9 ESE 6 9 1021.7 - 0.0 - - - - - - -
09/05:00am 17.1 SE 8 12 1021.7 - 0.0 - - - - - - -
09/04:30am 17.2 SE 7 12 1021.6 - 0.0 - - - - - - -
09/04:00am 17.0 SE 6 9 1021.8 - 0.0 - - - - - - -
09/03:30am 17.1 SE 9 12 1022.0 - 0.0 - - - - - - -
09/03:00am 17.0 SE 9 13 1022.3 - 0.0 - - - - - - -
09/02:30am 17.0 SE 9 12 1022.6 - 0.0 - - - - - - -
09/02:00am 17.0 SE 10 13 1022.9 - 0.0 - - - - - - -
09/01:30am 16.9 SSE 9 13 1023.1 - 0.0 - - - - - - -
09/01:00am 17.0 SSE 10 13 1023.3 - 0.0 - - - - - - -
09/12:30am 16.7 SSE 10 13 1023.5 - 0.0 - - - - - - -
09/12:00am 16.9 SSE 10 12 1023.6 - 0.0 - - - - - - -
 
Date/Time
EDT
Temp

°C
Wind Pressure Rain
since 9am
mm
Weather Cloud Vis
km
Sea
Height
m
Swell
Dir
 
Speed
knots
Gust
knots
hPa Trend Height
m
Period
s
Dir
08/11:30pm 17.1 SSE 11 14 1024.0 - 0.0 - - - - - - -
08/11:00pm 17.4 SSE 11 15 1024.1 - 0.0 - - - - - - -
08/10:30pm 17.3 SSE 12 16 1024.2 - 0.0 - - - - - - -
08/10:00pm 17.6 SSE 11 15 1024.2 - 0.0 - - - - - - -
08/09:30pm 17.7 SSE 11 14 1024.0 - 0.0 - - - - - - -
08/09:00pm 17.8 SSE 12 15 1023.8 - 0.0 - - - - - - -
08/08:30pm 17.9 SSE 11 15 1023.7 - 0.0 - - - - - - -
08/08:00pm 18.4 SSE 11 13 1023.4 - 0.0 - - - - - - -
08/07:30pm 19.3 SSE 11 14 1023.3 - 0.0 - - - - - - -
08/07:00pm 19.3 S 7 9 1022.9 - 0.0 - - - - - - -
08/06:30pm 19.9 S 7 10 1022.9 - 0.0 - - - - - - -
08/06:00pm 20.3 S 8 11 1022.9 - 0.0 - - - - - - -
08/05:30pm 20.0 S 9 13 1023.0 - 0.0 - - - - - - -
08/05:00pm 21.1 S 8 11 1023.2 - 0.0 - - - - - - -
08/04:30pm 20.6 S 9 11 1023.3 - 0.0 - - - - - - -
08/04:00pm 20.9 S 7 10 1023.3 - 0.0 - - - - - - -
08/03:30pm 21.1 S 8 10 1023.4 - 0.0 - - - - - - -
08/03:00pm 20.4 S 7 9 1023.5 - 0.0 - - - - - - -
08/02:30pm 20.5 S 7 9 1023.7 - 0.0 - - - - - - -
08/02:00pm 20.8 S 8 10 1023.8 - 0.0 - - - - - - -
08/01:30pm 21.5 SSE 7 10 1024.0 - 0.0 - - - - - - -
08/01:00pm 21.6 S 8 11 1024.2 - 0.0 - - - - - - -
08/12:30pm 21.0 S 7 11 1024.2 - 0.0 - - - - - - -
08/12:00pm 20.3 SSE 8 10 1024.2 - 0.0 - - - - - - -
08/11:30am 20.8 SSE 8 11 1024.2 - 0.0 - - - - - - -
08/11:00am 19.2 SSE 8 10 1024.1 - 0.0 - - - - - - -
08/10:30am 19.7 SSE 9 11 1024.1 - 0.0 - - - - - - -
08/10:00am 18.5 S 6 8 1024.1 - 0.0 - - - - - - -
08/09:30am 19.4 SSE 7 10 1024.0 - 0.0 - - - - - - -
08/09:00am 18.1 S 5 7 1023.6 - 0.0 - - - - - - -
08/08:30am 17.3 SSE 5 7 1023.4 - 0.0 - - - - - - -
08/08:00am 17.0 SSE 4 9 1023.0 - 0.0 - - - - - - -
08/07:30am 16.8 SSE 7 11 1022.7 - 0.0 - - - - - - -
08/07:00am 16.7 SSE 4 6 1022.4 - 0.0 - - - - - - -
08/06:30am 16.8 SSE 7 9 1022.0 - 0.0 - - - - - - -
08/06:00am 16.8 S 7 12 1021.7 - 0.0 - - - - - - -
08/05:30am 16.8 SSE 6 10 1021.5 - 0.0 - - - - - - -
08/05:00am 16.8 SSE 5 9 1021.4 - 0.0 - - - - - - -
08/04:30am 16.9 SSE 7 11 1021.3 - 0.0 - - - - - - -
08/04:00am 17.0 SSE 7 11 1021.3 - 0.0 - - - - - - -
08/03:30am 17.0 S 7 10 1021.3 - 0.0 - - - - - - -
08/03:00am 17.2 SSE 9 12 1021.3 - 0.0 - - - - - - -
08/02:30am 17.1 SSE 8 12 1021.4 - 0.0 - - - - - - -
08/02:00am 17.2 SSE 7 10 1021.5 - 0.0 - - - - - - -
08/01:30am 17.5 SSE 7 10 1021.7 - 0.0 - - - - - - -
08/01:00am 17.5 SSE 9 11 1021.7 - 0.0 - - - - - - -
08/12:30am 17.6 SSE 9 13 1021.6 - 0.0 - - - - - - -
08/12:00am 17.3 S 8 12 1021.6 - 0.0 - - - - - - -
 
Date/Time
EDT
Temp

°C
Wind Pressure Rain
since 9am
mm
Weather Cloud Vis
km
Sea
Height
m
Swell
Dir
 
Speed
knots
Gust
knots
hPa Trend Height
m
Period
s
Dir
07/11:30pm 17.5 S 10 14 1021.5 - 0.0 - - - - - - -
07/11:00pm 17.4 S 10 15 1021.3 - 0.0 - - - - - - -
07/10:30pm 17.6 S 10 16 1021.0 - 0.0 - - - - - - -
07/10:00pm 17.9 S 10 14 1020.7 - 0.0 - - - - - - -
07/09:30pm 17.7 S 8 11 1020.4 - 0.0 - - - - - - -
07/09:00pm 17.9 S 8 11 1020.2 - 0.0 - - - - - - -
07/08:30pm 18.1 S 7 10 1019.9 - 0.0 - - - - - - -
07/08:00pm 18.6 S 9 12 1019.5 - 0.0 - - - - - - -
07/07:30pm 19.1 S 7 11 1019.1 - 0.0 - - - - - - -
07/07:00pm 20.0 S 6 10 1018.8 - 0.0 - - - - - - -
07/06:30pm 20.6 S 7 10 1018.5 - 0.0 - - - - - - -
07/06:00pm 20.1 S 7 10 1018.6 - 0.0 - - - - - - -
07/05:30pm 20.9 S 7 10 1018.7 - 0.0 - - - - - - -
07/05:00pm 21.7 SSW 6 9 1018.5 - 0.0 - - - - - - -
07/04:30pm 21.4 SSW 7 9 1018.5 - 0.0 - - - - - - -
07/04:00pm 21.8 SSW 6 9 1018.4 - 0.0 - - - - - - -
07/03:30pm 21.8 SSW 6 9 1018.4 - 0.0 - - - - - - -
07/03:00pm 21.9 SSW 7 10 1018.6 - 0.0 - - - - - - -
07/02:30pm 22.2 SSW 6 9 1018.5 - 0.0 - - - - - - -
07/02:00pm 21.1 SSW 7 10 1018.6 - 0.0 - - - - - - -

Other Formats:

Comma delimited format used in spreadsheet applications
http://www.bom.gov.au/fwo/IDV60701/IDV60701.94830.axf

JavaScript Object Notation format (JSON) in row-major order
http://www.bom.gov.au/fwo/IDV60701/IDV60701.94830.json